Terminal Aerodrome Forecast
Issued by NWS

Home | Current Version | Previous Version | Text Only | Print | Product List | Glossary On
Versions: 1 2 3 4 5 6 7 8 9 10 11 12 13 14 15 16 17 18 19 20 21 22 23 24 25 26
000
FTUS43 KDLH 261120
TAFHIB
TAF
KHIB 261120Z 2612/2712 14005KT P6SM BKN040
     FM261800 19009KT P6SM VCTS BKN050CB
     FM262000 20009KT P6SM -SHRA VCTS BKN060CB
     FM262200 21008KT P6SM VCTS BKN060CB
     FM270000 21007KT P6SM BKN050
     FM271000 00000KT P6SM SCT150=

USA.gov is the U.S. government's official web portal to all federal, state and local government web resources and services.